sensor_id;sensor_type;location;lat;lon;timestamp;P1;durP1;ratioP1;P2;durP2;ratioP2
21647;SDS011;10985;54.182;7.890;2022-08-03T00:01:52;26.60;;;18.35;;
21647;SDS011;10985;54.182;7.890;2022-08-03T00:04:17;29.10;;;17.90;;
21647;SDS011;10985;54.182;7.890;2022-08-03T00:06:43;33.03;;;16.98;;
21647;SDS011;10985;54.182;7.890;2022-08-03T00:09:08;26.08;;;17.67;;
21647;SDS011;10985;54.182;7.890;2022-08-03T00:11:34;31.05;;;16.23;;
21647;SDS011;10985;54.182;7.890;2022-08-03T00:14:01;25.80;;;16.33;;
21647;SDS011;10985;54.182;7.890;2022-08-03T00:16:27;25.30;;;15.13;;
21647;SDS011;10985;54.182;7.890;2022-08-03T00:18:52;28.08;;;14.80;;
21647;SDS011;10985;54.182;7.890;2022-08-03T00:21:18;22.73;;;15.23;;
21647;SDS011;10985;54.182;7.890;2022-08-03T00:23:43;27.05;;;14.80;;
21647;SDS011;10985;54.182;7.890;2022-08-03T00:26:09;20.38;;;12.65;;
21647;SDS011;10985;54.182;7.890;2022-08-03T00:28:34;26.52;;;14.93;;
21647;SDS011;10985;54.182;7.890;2022-08-03T00:31:00;27.05;;;14.73;;
21647;SDS011;10985;54.182;7.890;2022-08-03T00:33:25;19.25;;;13.00;;
21647;SDS011;10985;54.182;7.890;2022-08-03T00:35:51;21.85;;;11.68;;
21647;SDS011;10985;54.182;7.890;2022-08-03T00:38:17;19.95;;;10.02;;
21647;SDS011;10985;54.182;7.890;2022-08-03T00:40:43;23.85;;;10.45;;
21647;SDS011;10985;54.182;7.890;2022-08-03T00:43:08;16.42;;;9.30;;
21647;SDS011;10985;54.182;7.890;2022-08-03T00:45:35;20.90;;;10.18;;
21647;SDS011;10985;54.182;7.890;2022-08-03T00:48:06;21.88;;;9.82;;
21647;SDS011;10985;54.182;7.890;2022-08-03T00:50:33;22.27;;;11.35;;
21647;SDS011;10985;54.182;7.890;2022-08-03T00:53:01;20.73;;;10.95;;
21647;SDS011;10985;54.182;7.890;2022-08-03T00:55:28;24.92;;;12.15;;
21647;SDS011;10985;54.182;7.890;2022-08-03T00:57:54;23.63;;;12.35;;
21647;SDS011;10985;54.182;7.890;2022-08-03T01:00:21;19.85;;;12.65;;
21647;SDS011;10985;54.182;7.890;2022-08-03T01:02:49;20.20;;;12.85;;
21647;SDS011;10985;54.182;7.890;2022-08-03T01:05:15;26.50;;;13.23;;
21647;SDS011;10985;54.182;7.890;2022-08-03T01:24:57;26.25;;;13.65;;
21647;SDS011;10985;54.182;7.890;2022-08-03T01:27:58;22.65;;;12.23;;
21647;SDS011;10985;54.182;7.890;2022-08-03T01:30:44;20.55;;;11.32;;
21647;SDS011;10985;54.182;7.890;2022-08-03T01:33:21;20.70;;;10.93;;
21647;SDS011;10985;54.182;7.890;2022-08-03T01:35:52;18.45;;;10.80;;
21647;SDS011;10985;54.182;7.890;2022-08-03T01:38:24;19.85;;;10.35;;
21647;SDS011;10985;54.182;7.890;2022-08-03T01:40:53;23.98;;;10.45;;
21647;SDS011;10985;54.182;7.890;2022-08-03T01:43:22;22.27;;;9.95;;
21647;SDS011;10985;54.182;7.890;2022-08-03T01:45:52;25.08;;;9.80;;
21647;SDS011;10985;54.182;7.890;2022-08-03T01:48:19;16.63;;;8.77;;
21647;SDS011;10985;54.182;7.890;2022-08-03T01:50:45;21.55;;;8.70;;
21647;SDS011;10985;54.182;7.890;2022-08-03T01:53:13;16.50;;;7.68;;
21647;SDS011;10985;54.182;7.890;2022-08-03T01:55:41;15.05;;;7.28;;
21647;SDS011;10985;54.182;7.890;2022-08-03T01:58:08;14.07;;;6.45;;
21647;SDS011;10985;54.182;7.890;2022-08-03T02:00:35;13.60;;;5.93;;
21647;SDS011;10985;54.182;7.890;2022-08-03T02:03:04;18.52;;;5.68;;
21647;SDS011;10985;54.182;7.890;2022-08-03T02:05:31;13.93;;;6.18;;
21647;SDS011;10985;54.182;7.890;2022-08-03T02:07:57;17.88;;;6.15;;
21647;SDS011;10985;54.182;7.890;2022-08-03T02:10:24;16.35;;;6.85;;
21647;SDS011;10985;54.182;7.890;2022-08-03T02:12:52;20.45;;;6.22;;
21647;SDS011;10985;54.182;7.890;2022-08-03T02:15:19;12.85;;;5.70;;
21647;SDS011;10985;54.182;7.890;2022-08-03T02:17:46;24.70;;;5.65;;
21647;SDS011;10985;54.182;7.890;2022-08-03T02:20:14;15.60;;;5.95;;
21647;SDS011;10985;54.182;7.890;2022-08-03T02:22:41;17.48;;;5.47;;
21647;SDS011;10985;54.182;7.890;2022-08-03T02:25:08;13.27;;;4.80;;
21647;SDS011;10985;54.182;7.890;2022-08-03T02:27:36;13.65;;;5.07;;
21647;SDS011;10985;54.182;7.890;2022-08-03T02:30:06;14.48;;;5.15;;
21647;SDS011;10985;54.182;7.890;2022-08-03T02:32:35;13.02;;;5.10;;
21647;SDS011;10985;54.182;7.890;2022-08-03T02:35:05;12.30;;;5.10;;
21647;SDS011;10985;54.182;7.890;2022-08-03T02:37:34;13.98;;;4.78;;
21647;SDS011;10985;54.182;7.890;2022-08-03T02:40:05;13.18;;;5.28;;
21647;SDS011;10985;54.182;7.890;2022-08-03T02:42:33;15.20;;;4.70;;
21647;SDS011;10985;54.182;7.890;2022-08-03T02:45:01;15.75;;;4.90;;
21647;SDS011;10985;54.182;7.890;2022-08-03T02:47:29;16.23;;;4.93;;
21647;SDS011;10985;54.182;7.890;2022-08-03T02:49:56;10.80;;;4.75;;
21647;SDS011;10985;54.182;7.890;2022-08-03T02:52:24;14.73;;;4.53;;
21647;SDS011;10985;54.182;7.890;2022-08-03T02:54:54;16.60;;;5.40;;
21647;SDS011;10985;54.182;7.890;2022-08-03T02:57:23;16.30;;;5.72;;
21647;SDS011;10985;54.182;7.890;2022-08-03T02:59:50;16.30;;;5.60;;
21647;SDS011;10985;54.182;7.890;2022-08-03T07:02:02;13.95;;;4.53;;
21647;SDS011;10985;54.182;7.890;2022-08-03T07:04:28;6.10;;;3.90;;
21647;SDS011;10985;54.182;7.890;2022-08-03T07:06:54;13.40;;;4.18;;
21647;SDS011;10985;54.182;7.890;2022-08-03T07:09:20;12.75;;;3.80;;
21647;SDS011;10985;54.182;7.890;2022-08-03T07:11:46;9.50;;;3.67;;
21647;SDS011;10985;54.182;7.890;2022-08-03T07:14:12;12.48;;;4.40;;
21647;SDS011;10985;54.182;7.890;2022-08-03T07:16:38;9.90;;;3.63;;
21647;SDS011;10985;54.182;7.890;2022-08-03T07:19:04;11.80;;;4.10;;
21647;SDS011;10985;54.182;7.890;2022-08-03T07:21:30;10.63;;;4.07;;
21647;SDS011;10985;54.182;7.890;2022-08-03T07:23:56;10.38;;;4.22;;
21647;SDS011;10985;54.182;7.890;2022-08-03T07:26:22;14.93;;;4.45;;
21647;SDS011;10985;54.182;7.890;2022-08-03T07:28:48;14.02;;;3.97;;
21647;SDS011;10985;54.182;7.890;2022-08-03T07:31:14;14.63;;;4.13;;
21647;SDS011;10985;54.182;7.890;2022-08-03T07:33:40;21.77;;;3.92;;
21647;SDS011;10985;54.182;7.890;2022-08-03T07:36:06;14.95;;;3.40;;
21647;SDS011;10985;54.182;7.890;2022-08-03T07:38:33;10.38;;;3.60;;
21647;SDS011;10985;54.182;7.890;2022-08-03T07:40:59;15.77;;;4.38;;
21647;SDS011;10985;54.182;7.890;2022-08-03T07:43:25;11.25;;;3.63;;
21647;SDS011;10985;54.182;7.890;2022-08-03T07:45:51;15.95;;;4.22;;
21647;SDS011;10985;54.182;7.890;2022-08-03T07:48:17;12.15;;;3.97;;
21647;SDS011;10985;54.182;7.890;2022-08-03T07:50:43;9.52;;;3.80;;
21647;SDS011;10985;54.182;7.890;2022-08-03T07:53:10;12.35;;;3.80;;
21647;SDS011;10985;54.182;7.890;2022-08-03T07:55:36;11.98;;;3.38;;
21647;SDS011;10985;54.182;7.890;2022-08-03T07:58:05;10.90;;;2.97;;
21647;SDS011;10985;54.182;7.890;2022-08-03T08:00:33;9.23;;;3.75;;
21647;SDS011;10985;54.182;7.890;2022-08-03T08:02:59;12.50;;;3.17;;
21647;SDS011;10985;54.182;7.890;2022-08-03T08:05:24;13.55;;;4.03;;
21647;SDS011;10985;54.182;7.890;2022-08-03T08:07:50;10.77;;;3.67;;
21647;SDS011;10985;54.182;7.890;2022-08-03T08:10:16;14.70;;;3.30;;
21647;SDS011;10985;54.182;7.890;2022-08-03T08:12:42;15.23;;;3.45;;
21647;SDS011;10985;54.182;7.890;2022-08-03T08:15:08;16.27;;;4.22;;
21647;SDS011;10985;54.182;7.890;2022-08-03T08:17:41;7.07;;;2.97;;
21647;SDS011;10985;54.182;7.890;2022-08-03T08:20:15;9.35;;;3.10;;
21647;SDS011;10985;54.182;7.890;2022-08-03T08:23:03;12.65;;;3.30;;
21647;SDS011;10985;54.182;7.890;2022-08-03T08:25:30;15.15;;;3.53;;
21647;SDS011;10985;54.182;7.890;2022-08-03T08:27:56;17.42;;;3.60;;
21647;SDS011;10985;54.182;7.890;2022-08-03T08:30:25;14.98;;;4.07;;
21647;SDS011;10985;54.182;7.890;2022-08-03T08:32:51;12.18;;;3.60;;
21647;SDS011;10985;54.182;7.890;2022-08-03T08:35:17;10.70;;;3.72;;
21647;SDS011;10985;54.182;7.890;2022-08-03T08:37:43;13.48;;;4.03;;
21647;SDS011;10985;54.182;7.890;2022-08-03T08:40:09;11.27;;;3.58;;
21647;SDS011;10985;54.182;7.890;2022-08-03T08:42:37;11.32;;;3.35;;
21647;SDS011;10985;54.182;7.890;2022-08-03T08:45:03;11.05;;;3.58;;
21647;SDS011;10985;54.182;7.890;2022-08-03T08:47:31;11.35;;;3.33;;
21647;SDS011;10985;54.182;7.890;2022-08-03T08:49:58;8.25;;;3.22;;
21647;SDS011;10985;54.182;7.890;2022-08-03T08:52:25;12.05;;;3.83;;
21647;SDS011;10985;54.182;7.890;2022-08-03T08:54:56;8.32;;;3.22;;
21647;SDS011;10985;54.182;7.890;2022-08-03T08:57:25;15.02;;;3.90;;
21647;SDS011;10985;54.182;7.890;2022-08-03T08:59:54;13.90;;;4.15;;
21647;SDS011;10985;54.182;7.890;2022-08-03T09:02:21;7.70;;;3.50;;
21647;SDS011;10985;54.182;7.890;2022-08-03T09:04:48;9.20;;;3.38;;
21647;SDS011;10985;54.182;7.890;2022-08-03T09:07:14;12.60;;;3.78;;
21647;SDS011;10985;54.182;7.890;2022-08-03T09:09:41;16.35;;;3.70;;
21647;SDS011;10985;54.182;7.890;2022-08-03T09:12:07;8.82;;;3.50;;
21647;SDS011;10985;54.182;7.890;2022-08-03T09:14:33;11.90;;;3.45;;
21647;SDS011;10985;54.182;7.890;2022-08-03T09:16:59;7.97;;;3.22;;
21647;SDS011;10985;54.182;7.890;2022-08-03T09:19:26;11.35;;;3.42;;
21647;SDS011;10985;54.182;7.890;2022-08-03T09:22:09;14.77;;;3.65;;
21647;SDS011;10985;54.182;7.890;2022-08-03T09:24:36;12.95;;;3.70;;
21647;SDS011;10985;54.182;7.890;2022-08-03T09:27:18;11.85;;;3.17;;
21647;SDS011;10985;54.182;7.890;2022-08-03T09:29:46;14.77;;;3.40;;
21647;SDS011;10985;54.182;7.890;2022-08-03T09:32:18;13.35;;;3.47;;
21647;SDS011;10985;54.182;7.890;2022-08-03T09:34:45;12.07;;;3.60;;
21647;SDS011;10985;54.182;7.890;2022-08-03T09:37:12;16.98;;;3.85;;
21647;SDS011;10985;54.182;7.890;2022-08-03T09:39:39;9.27;;;3.25;;
21647;SDS011;10985;54.182;7.890;2022-08-03T09:44:56;12.18;;;3.42;;
21647;SDS011;10985;54.182;7.890;2022-08-03T09:47:29;12.70;;;3.03;;
21647;SDS011;10985;54.182;7.890;2022-08-03T09:50:00;7.68;;;3.13;;
21647;SDS011;10985;54.182;7.890;2022-08-03T09:52:33;14.25;;;3.83;;
21647;SDS011;10985;54.182;7.890;2022-08-03T09:55:00;9.63;;;3.55;;
21647;SDS011;10985;54.182;7.890;2022-08-03T09:57:31;10.65;;;3.85;;
21647;SDS011;10985;54.182;7.890;2022-08-03T10:00:09;13.80;;;3.55;;
21647;SDS011;10985;54.182;7.890;2022-08-03T10:02:37;10.63;;;3.55;;
21647;SDS011;10985;54.182;7.890;2022-08-03T10:05:04;15.77;;;4.13;;
21647;SDS011;10985;54.182;7.890;2022-08-03T10:07:45;16.05;;;3.50;;
21647;SDS011;10985;54.182;7.890;2022-08-03T10:10:15;13.00;;;3.78;;
21647;SDS011;10985;54.182;7.890;2022-08-03T10:12:42;9.43;;;3.50;;
21647;SDS011;10985;54.182;7.890;2022-08-03T10:15:09;10.63;;;3.28;;
21647;SDS011;10985;54.182;7.890;2022-08-03T10:17:35;10.85;;;2.90;;
21647;SDS011;10985;54.182;7.890;2022-08-03T10:20:05;11.48;;;3.58;;
21647;SDS011;10985;54.182;7.890;2022-08-03T10:22:31;17.13;;;3.92;;
21647;SDS011;10985;54.182;7.890;2022-08-03T10:25:08;19.25;;;3.25;;
21647;SDS011;10985;54.182;7.890;2022-08-03T10:27:37;13.35;;;4.00;;
21647;SDS011;10985;54.182;7.890;2022-08-03T10:30:05;14.27;;;4.13;;
21647;SDS011;10985;54.182;7.890;2022-08-03T10:32:33;10.48;;;2.95;;
21647;SDS011;10985;54.182;7.890;2022-08-03T10:35:13;10.85;;;3.47;;
21647;SDS011;10985;54.182;7.890;2022-08-03T10:37:44;12.48;;;3.72;;
21647;SDS011;10985;54.182;7.890;2022-08-03T10:40:15;9.30;;;3.53;;
21647;SDS011;10985;54.182;7.890;2022-08-03T10:42:45;10.20;;;4.10;;
21647;SDS011;10985;54.182;7.890;2022-08-03T10:45:20;10.23;;;3.38;;
21647;SDS011;10985;54.182;7.890;2022-08-03T10:47:49;11.68;;;4.07;;
21647;SDS011;10985;54.182;7.890;2022-08-03T10:50:17;10.52;;;3.33;;
21647;SDS011;10985;54.182;7.890;2022-08-03T10:52:56;9.77;;;3.75;;
21647;SDS011;10985;54.182;7.890;2022-08-03T10:55:31;9.07;;;3.53;;
21647;SDS011;10985;54.182;7.890;2022-08-03T11:01:17;10.70;;;3.60;;
21647;SDS011;10985;54.182;7.890;2022-08-03T11:06:19;12.38;;;3.80;;
21647;SDS011;10985;54.182;7.890;2022-08-03T11:08:47;10.00;;;3.47;;
21647;SDS011;10985;54.182;7.890;2022-08-03T11:16:29;10.95;;;3.40;;
21647;SDS011;10985;54.182;7.890;2022-08-03T11:19:00;13.80;;;4.30;;
21647;SDS011;10985;54.182;7.890;2022-08-03T11:41:10;9.98;;;3.75;;
21647;SDS011;10985;54.182;7.890;2022-08-03T11:45:59;10.00;;;4.78;;
21647;SDS011;10985;54.182;7.890;2022-08-03T11:48:27;14.25;;;4.50;;
21647;SDS011;10985;54.182;7.890;2022-08-03T11:51:04;11.75;;;4.03;;
21647;SDS011;10985;54.182;7.890;2022-08-03T11:53:31;13.23;;;5.05;;
21647;SDS011;10985;54.182;7.890;2022-08-03T11:55:58;10.43;;;4.90;;
21647;SDS011;10985;54.182;7.890;2022-08-03T11:58:25;15.60;;;6.93;;
21647;SDS011;10985;54.182;7.890;2022-08-03T12:00:51;11.68;;;4.88;;
21647;SDS011;10985;54.182;7.890;2022-08-03T12:03:18;12.70;;;4.78;;
21647;SDS011;10985;54.182;7.890;2022-08-03T12:05:48;7.55;;;4.03;;
21647;SDS011;10985;54.182;7.890;2022-08-03T12:08:16;25.63;;;10.18;;
21647;SDS011;10985;54.182;7.890;2022-08-03T12:11:03;18.70;;;8.52;;
21647;SDS011;10985;54.182;7.890;2022-08-03T12:13:43;9.55;;;5.47;;
21647;SDS011;10985;54.182;7.890;2022-08-03T12:16:20;16.55;;;5.53;;
21647;SDS011;10985;54.182;7.890;2022-08-03T12:19:06;11.32;;;5.15;;
21647;SDS011;10985;54.182;7.890;2022-08-03T12:21:32;13.52;;;5.38;;
21647;SDS011;10985;54.182;7.890;2022-08-03T12:23:58;7.13;;;4.82;;
21647;SDS011;10985;54.182;7.890;2022-08-03T12:26:25;15.00;;;5.60;;
21647;SDS011;10985;54.182;7.890;2022-08-03T12:28:52;10.80;;;5.35;;
21647;SDS011;10985;54.182;7.890;2022-08-03T12:31:17;12.30;;;5.80;;
21647;SDS011;10985;54.182;7.890;2022-08-03T12:33:59;15.20;;;9.10;;
21647;SDS011;10985;54.182;7.890;2022-08-03T12:36:31;12.20;;;5.97;;
21647;SDS011;10985;54.182;7.890;2022-08-03T12:39:02;9.43;;;5.35;;
21647;SDS011;10985;54.182;7.890;2022-08-03T12:41:36;13.77;;;5.20;;
21647;SDS011;10985;54.182;7.890;2022-08-03T12:44:03;11.88;;;5.68;;
21647;SDS011;10985;54.182;7.890;2022-08-03T12:46:31;13.18;;;5.70;;
21647;SDS011;10985;54.182;7.890;2022-08-03T12:49:10;12.93;;;5.63;;
21647;SDS011;10985;54.182;7.890;2022-08-03T12:54:08;14.75;;;5.50;;
21647;SDS011;10985;54.182;7.890;2022-08-03T12:57:11;12.55;;;5.72;;
21647;SDS011;10985;54.182;7.890;2022-08-03T12:59:38;14.95;;;6.35;;
21647;SDS011;10985;54.182;7.890;2022-08-03T13:02:13;12.75;;;5.35;;
21647;SDS011;10985;54.182;7.890;2022-08-03T13:04:40;13.00;;;5.40;;
21647;SDS011;10985;54.182;7.890;2022-08-03T13:07:06;11.35;;;5.82;;
21647;SDS011;10985;54.182;7.890;2022-08-03T13:09:40;15.60;;;6.22;;
21647;SDS011;10985;54.182;7.890;2022-08-03T13:12:09;14.48;;;8.38;;
21647;SDS011;10985;54.182;7.890;2022-08-03T13:14:37;12.65;;;8.30;;
21647;SDS011;10985;54.182;7.890;2022-08-03T13:17:02;12.90;;;5.68;;
21647;SDS011;10985;54.182;7.890;2022-08-03T13:19:30;12.40;;;6.00;;
21647;SDS011;10985;54.182;7.890;2022-08-03T13:21:56;13.38;;;5.88;;
21647;SDS011;10985;54.182;7.890;2022-08-03T13:24:22;17.50;;;8.25;;
21647;SDS011;10985;54.182;7.890;2022-08-03T13:26:47;13.60;;;6.43;;
21647;SDS011;10985;54.182;7.890;2022-08-03T13:29:14;13.07;;;6.72;;
21647;SDS011;10985;54.182;7.890;2022-08-03T13:31:40;19.77;;;7.78;;
21647;SDS011;10985;54.182;7.890;2022-08-03T13:34:05;11.85;;;6.38;;
21647;SDS011;10985;54.182;7.890;2022-08-03T13:36:31;18.23;;;6.95;;
21647;SDS011;10985;54.182;7.890;2022-08-03T13:38:56;13.23;;;6.65;;
21647;SDS011;10985;54.182;7.890;2022-08-03T13:41:22;21.92;;;8.27;;
21647;SDS011;10985;54.182;7.890;2022-08-03T13:43:48;18.50;;;7.93;;
21647;SDS011;10985;54.182;7.890;2022-08-03T13:46:13;25.98;;;9.32;;
21647;SDS011;10985;54.182;7.890;2022-08-03T13:48:38;21.95;;;8.73;;
21647;SDS011;10985;54.182;7.890;2022-08-03T13:51:04;21.25;;;9.70;;
21647;SDS011;10985;54.182;7.890;2022-08-03T13:53:30;29.27;;;9.13;;
21647;SDS011;10985;54.182;7.890;2022-08-03T13:55:56;22.98;;;8.45;;
21647;SDS011;10985;54.182;7.890;2022-08-03T13:58:21;19.00;;;7.70;;
21647;SDS011;10985;54.182;7.890;2022-08-03T14:00:47;22.13;;;7.80;;
21647;SDS011;10985;54.182;7.890;2022-08-03T14:03:12;22.52;;;8.43;;
21647;SDS011;10985;54.182;7.890;2022-08-03T14:05:38;22.95;;;7.57;;
21647;SDS011;10985;54.182;7.890;2022-08-03T14:08:04;21.50;;;7.32;;
21647;SDS011;10985;54.182;7.890;2022-08-03T14:10:31;23.25;;;7.20;;
21647;SDS011;10985;54.182;7.890;2022-08-03T14:13:01;19.88;;;6.45;;
21647;SDS011;10985;54.182;7.890;2022-08-03T14:15:28;23.40;;;7.20;;
21647;SDS011;10985;54.182;7.890;2022-08-03T14:17:53;24.35;;;6.68;;
21647;SDS011;10985;54.182;7.890;2022-08-03T14:20:19;20.67;;;7.13;;
21647;SDS011;10985;54.182;7.890;2022-08-03T14:22:45;21.75;;;6.38;;
21647;SDS011;10985;54.182;7.890;2022-08-03T14:25:10;20.67;;;6.85;;
21647;SDS011;10985;54.182;7.890;2022-08-03T14:27:36;24.00;;;7.13;;
21647;SDS011;10985;54.182;7.890;2022-08-03T14:30:02;21.90;;;6.72;;
21647;SDS011;10985;54.182;7.890;2022-08-03T14:32:28;25.27;;;6.75;;
21647;SDS011;10985;54.182;7.890;2022-08-03T14:34:53;20.75;;;6.18;;
21647;SDS011;10985;54.182;7.890;2022-08-03T14:37:19;20.65;;;6.13;;
21647;SDS011;10985;54.182;7.890;2022-08-03T14:39:44;26.05;;;6.88;;
21647;SDS011;10985;54.182;7.890;2022-08-03T14:42:11;23.08;;;10.50;;
21647;SDS011;10985;54.182;7.890;2022-08-03T14:44:37;21.45;;;7.43;;
21647;SDS011;10985;54.182;7.890;2022-08-03T14:47:02;26.13;;;7.65;;
21647;SDS011;10985;54.182;7.890;2022-08-03T14:49:28;26.00;;;7.40;;
21647;SDS011;10985;54.182;7.890;2022-08-03T14:51:53;21.40;;;7.50;;
21647;SDS011;10985;54.182;7.890;2022-08-03T14:54:19;24.15;;;7.03;;
21647;SDS011;10985;54.182;7.890;2022-08-03T14:56:45;25.95;;;6.82;;
21647;SDS011;10985;54.182;7.890;2022-08-03T14:59:11;22.42;;;8.98;;
21647;SDS011;10985;54.182;7.890;2022-08-03T15:01:36;22.17;;;8.38;;
21647;SDS011;10985;54.182;7.890;2022-08-03T15:04:02;24.05;;;6.72;;
21647;SDS011;10985;54.182;7.890;2022-08-03T15:06:27;21.15;;;6.57;;
21647;SDS011;10985;54.182;7.890;2022-08-03T15:08:53;22.23;;;6.72;;
21647;SDS011;10985;54.182;7.890;2022-08-03T15:11:18;22.95;;;6.03;;
21647;SDS011;10985;54.182;7.890;2022-08-03T15:13:44;23.08;;;5.97;;
21647;SDS011;10985;54.182;7.890;2022-08-03T15:16:09;29.98;;;10.02;;
21647;SDS011;10985;54.182;7.890;2022-08-03T15:18:35;18.90;;;5.75;;
21647;SDS011;10985;54.182;7.890;2022-08-03T15:21:00;22.42;;;6.70;;
21647;SDS011;10985;54.182;7.890;2022-08-03T15:23:26;28.50;;;6.78;;
21647;SDS011;10985;54.182;7.890;2022-08-03T15:25:52;23.58;;;5.43;;
21647;SDS011;10985;54.182;7.890;2022-08-03T15:28:17;27.45;;;6.57;;
21647;SDS011;10985;54.182;7.890;2022-08-03T15:30:44;26.10;;;7.50;;
21647;SDS011;10985;54.182;7.890;2022-08-03T15:33:09;24.00;;;6.60;;
21647;SDS011;10985;54.182;7.890;2022-08-03T15:35:35;21.13;;;6.70;;
21647;SDS011;10985;54.182;7.890;2022-08-03T15:38:00;25.20;;;7.40;;
21647;SDS011;10985;54.182;7.890;2022-08-03T15:40:26;25.98;;;7.07;;
21647;SDS011;10985;54.182;7.890;2022-08-03T15:42:52;27.55;;;7.38;;
21647;SDS011;10985;54.182;7.890;2022-08-03T15:45:17;28.08;;;6.53;;
21647;SDS011;10985;54.182;7.890;2022-08-03T15:47:43;23.33;;;6.95;;
21647;SDS011;10985;54.182;7.890;2022-08-03T15:50:09;23.63;;;6.07;;
21647;SDS011;10985;54.182;7.890;2022-08-03T15:52:35;21.27;;;5.47;;
21647;SDS011;10985;54.182;7.890;2022-08-03T15:55:01;18.95;;;5.35;;
21647;SDS011;10985;54.182;7.890;2022-08-03T15:57:27;21.50;;;5.18;;
21647;SDS011;10985;54.182;7.890;2022-08-03T15:59:53;20.20;;;5.85;;
21647;SDS011;10985;54.182;7.890;2022-08-03T16:02:18;26.48;;;7.90;;
21647;SDS011;10985;54.182;7.890;2022-08-03T16:04:44;26.33;;;6.30;;
21647;SDS011;10985;54.182;7.890;2022-08-03T16:07:09;19.50;;;6.07;;
21647;SDS011;10985;54.182;7.890;2022-08-03T16:09:35;23.35;;;6.90;;
21647;SDS011;10985;54.182;7.890;2022-08-03T16:12:00;22.67;;;6.65;;
21647;SDS011;10985;54.182;7.890;2022-08-03T16:14:26;24.50;;;6.88;;
21647;SDS011;10985;54.182;7.890;2022-08-03T16:16:51;23.15;;;6.13;;
21647;SDS011;10985;54.182;7.890;2022-08-03T16:19:17;21.23;;;6.57;;
21647;SDS011;10985;54.182;7.890;2022-08-03T16:21:42;25.90;;;6.97;;
21647;SDS011;10985;54.182;7.890;2022-08-03T16:24:08;20.83;;;9.02;;
21647;SDS011;10985;54.182;7.890;2022-08-03T16:26:33;22.75;;;7.35;;
21647;SDS011;10985;54.182;7.890;2022-08-03T16:28:59;24.13;;;8.05;;
21647;SDS011;10985;54.182;7.890;2022-08-03T16:31:24;21.85;;;6.80;;
21647;SDS011;10985;54.182;7.890;2022-08-03T16:33:52;18.40;;;6.20;;
21647;SDS011;10985;54.182;7.890;2022-08-03T16:36:18;22.10;;;6.88;;
21647;SDS011;10985;54.182;7.890;2022-08-03T16:38:44;31.92;;;7.72;;
21647;SDS011;10985;54.182;7.890;2022-08-03T16:41:09;13.98;;;6.20;;
21647;SDS011;10985;54.182;7.890;2022-08-03T16:43:35;20.85;;;6.35;;
21647;SDS011;10985;54.182;7.890;2022-08-03T16:46:01;18.80;;;5.75;;
21647;SDS011;10985;54.182;7.890;2022-08-03T16:48:26;20.30;;;6.32;;
21647;SDS011;10985;54.182;7.890;2022-08-03T16:50:52;21.92;;;6.72;;
21647;SDS011;10985;54.182;7.890;2022-08-03T16:53:18;20.45;;;6.30;;
21647;SDS011;10985;54.182;7.890;2022-08-03T16:55:44;20.33;;;6.68;;
21647;SDS011;10985;54.182;7.890;2022-08-03T16:58:11;16.95;;;6.22;;
21647;SDS011;10985;54.182;7.890;2022-08-03T17:00:38;21.48;;;5.97;;
21647;SDS011;10985;54.182;7.890;2022-08-03T17:03:05;16.55;;;6.22;;
21647;SDS011;10985;54.182;7.890;2022-08-03T17:05:32;16.00;;;6.45;;
21647;SDS011;10985;54.182;7.890;2022-08-03T17:07:58;17.95;;;7.18;;
21647;SDS011;10985;54.182;7.890;2022-08-03T17:10:24;19.67;;;6.80;;
21647;SDS011;10985;54.182;7.890;2022-08-03T17:12:50;21.02;;;7.72;;
21647;SDS011;10985;54.182;7.890;2022-08-03T17:15:15;18.13;;;7.00;;
21647;SDS011;10985;54.182;7.890;2022-08-03T17:17:42;23.63;;;6.63;;
21647;SDS011;10985;54.182;7.890;2022-08-03T17:20:12;23.45;;;6.40;;
21647;SDS011;10985;54.182;7.890;2022-08-03T17:22:44;15.70;;;6.22;;
21647;SDS011;10985;54.182;7.890;2022-08-03T17:25:13;22.08;;;8.15;;
21647;SDS011;10985;54.182;7.890;2022-08-03T17:27:40;18.38;;;7.47;;
21647;SDS011;10985;54.182;7.890;2022-08-03T17:30:11;25.65;;;8.02;;
21647;SDS011;10985;54.182;7.890;2022-08-03T17:32:40;20.90;;;6.75;;
21647;SDS011;10985;54.182;7.890;2022-08-03T17:35:07;19.13;;;6.25;;
21647;SDS011;10985;54.182;7.890;2022-08-03T17:37:33;14.77;;;6.32;;
21647;SDS011;10985;54.182;7.890;2022-08-03T17:39:59;20.90;;;6.63;;
21647;SDS011;10985;54.182;7.890;2022-08-03T17:42:25;18.88;;;5.88;;
21647;SDS011;10985;54.182;7.890;2022-08-03T17:44:51;20.58;;;6.53;;
21647;SDS011;10985;54.182;7.890;2022-08-03T17:47:17;18.33;;;6.28;;
21647;SDS011;10985;54.182;7.890;2022-08-03T17:49:43;26.35;;;7.00;;
21647;SDS011;10985;54.182;7.890;2022-08-03T17:52:16;21.70;;;7.32;;
21647;SDS011;10985;54.182;7.890;2022-08-03T17:54:51;20.63;;;6.68;;
21647;SDS011;10985;54.182;7.890;2022-08-03T17:57:35;16.73;;;6.38;;
21647;SDS011;10985;54.182;7.890;2022-08-03T18:00:11;22.40;;;6.80;;
21647;SDS011;10985;54.182;7.890;2022-08-03T18:05:39;20.58;;;6.60;;
21647;SDS011;10985;54.182;7.890;2022-08-03T18:08:07;25.42;;;7.57;;
21647;SDS011;10985;54.182;7.890;2022-08-03T18:10:36;25.15;;;7.25;;
21647;SDS011;10985;54.182;7.890;2022-08-03T18:13:13;20.85;;;7.32;;
21647;SDS011;10985;54.182;7.890;2022-08-03T18:15:45;20.70;;;6.90;;
21647;SDS011;10985;54.182;7.890;2022-08-03T18:18:33;26.90;;;7.97;;
21647;SDS011;10985;54.182;7.890;2022-08-03T18:21:01;26.42;;;8.30;;
21647;SDS011;10985;54.182;7.890;2022-08-03T18:23:28;29.40;;;8.63;;
21647;SDS011;10985;54.182;7.890;2022-08-03T18:25:54;28.83;;;8.48;;
21647;SDS011;10985;54.182;7.890;2022-08-03T18:28:20;30.50;;;10.90;;
21647;SDS011;10985;54.182;7.890;2022-08-03T18:30:46;27.23;;;8.68;;
21647;SDS011;10985;54.182;7.890;2022-08-03T18:33:13;40.13;;;18.73;;
21647;SDS011;10985;54.182;7.890;2022-08-03T18:35:41;22.95;;;7.65;;
21647;SDS011;10985;54.182;7.890;2022-08-03T18:38:08;29.25;;;8.50;;
21647;SDS011;10985;54.182;7.890;2022-08-03T18:40:40;18.33;;;6.97;;
21647;SDS011;10985;54.182;7.890;2022-08-03T18:43:06;20.48;;;7.85;;
21647;SDS011;10985;54.182;7.890;2022-08-03T18:45:35;27.98;;;7.97;;
21647;SDS011;10985;54.182;7.890;2022-08-03T18:50:52;24.67;;;7.72;;
21647;SDS011;10985;54.182;7.890;2022-08-03T18:53:36;22.40;;;6.50;;
21647;SDS011;10985;54.182;7.890;2022-08-03T18:56:26;25.38;;;7.53;;
21647;SDS011;10985;54.182;7.890;2022-08-03T19:02:00;25.30;;;7.03;;
21647;SDS011;10985;54.182;7.890;2022-08-03T19:04:32;23.60;;;7.15;;
21647;SDS011;10985;54.182;7.890;2022-08-03T19:07:00;27.67;;;7.53;;
21647;SDS011;10985;54.182;7.890;2022-08-03T19:12:14;22.95;;;7.72;;
21647;SDS011;10985;54.182;7.890;2022-08-03T19:14:43;26.85;;;9.95;;
21647;SDS011;10985;54.182;7.890;2022-08-03T19:17:11;20.13;;;7.97;;
21647;SDS011;10985;54.182;7.890;2022-08-03T19:19:38;28.25;;;9.25;;
21647;SDS011;10985;54.182;7.890;2022-08-03T19:22:09;19.38;;;8.48;;
21647;SDS011;10985;54.182;7.890;2022-08-03T19:24:35;26.60;;;8.93;;
21647;SDS011;10985;54.182;7.890;2022-08-03T19:27:04;24.35;;;7.60;;
21647;SDS011;10985;54.182;7.890;2022-08-03T19:29:32;23.27;;;8.73;;
21647;SDS011;10985;54.182;7.890;2022-08-03T19:32:00;20.52;;;7.85;;
21647;SDS011;10985;54.182;7.890;2022-08-03T19:34:29;20.40;;;7.32;;
21647;SDS011;10985;54.182;7.890;2022-08-03T19:36:56;25.73;;;8.73;;
21647;SDS011;10985;54.182;7.890;2022-08-03T19:39:22;21.77;;;9.18;;
21647;SDS011;10985;54.182;7.890;2022-08-03T19:41:49;25.95;;;9.20;;
21647;SDS011;10985;54.182;7.890;2022-08-03T19:44:22;31.25;;;9.65;;
21647;SDS011;10985;54.182;7.890;2022-08-03T19:46:53;23.40;;;8.75;;